Time;durP1;ratioP1;P1;durP2;ratioP2;P2;SDS_P1;SDS_P2;PMS_P1;PMS_P2;Temp;Humidity;BMP_temperature;BMP_pressure;BME280_temperature;BME280_humidity;BME280_pressure;Samples;Min_cycle;Max_cycle;Signal;HPM_P1;HPM_P2
2022/01/27 00:06:52;;;;;;;24.88;10.23;;;;;;;-1.06;66.20;95465.00;5077093;28;20040;-79
2022/01/27 00:09:24;;;;;;;25.02;10.90;;;;;;;-1.12;65.74;95453.28;5118100;27;20100;-79
2022/01/27 00:11:50;;;;;;;25.65;11.55;;;;;;;-1.13;65.98;95466.06;5131611;27;20038;-78
2022/01/27 00:14:18;;;;;;;31.73;12.75;;;;;;;-1.19;66.18;95468.78;5131681;27;20397;-79
2022/01/27 00:16:53;;;;;;;24.83;12.45;;;;;;;-1.10;66.17;95463.44;5131277;28;20039;-79
2022/01/27 00:19:18;;;;;;;33.60;14.75;;;;;;;-1.18;66.40;95450.88;5115537;28;20027;-79
2022/01/27 00:21:44;;;;;;;28.52;13.50;;;;;;;-1.13;66.93;95456.72;5113586;28;20035;-79
2022/01/27 00:24:09;;;;;;;27.60;12.93;;;;;;;-1.23;66.92;95457.81;5130608;28;20043;-78
2022/01/27 00:26:34;;;;;;;29.33;14.32;;;;;;;-1.16;66.78;95461.06;5140321;27;20029;-79
2022/01/27 00:29:00;;;;;;;26.00;11.52;;;;;;;-1.21;66.75;95455.25;5151162;27;20027;-79
2022/01/27 00:31:25;;;;;;;28.17;11.73;;;;;;;-1.12;66.99;95468.56;5116798;27;20050;-79
2022/01/27 00:33:51;;;;;;;26.25;13.25;;;;;;;-1.21;67.33;95462.91;5133788;27;20042;-79
2022/01/27 00:36:17;;;;;;;21.75;10.63;;;;;;;-1.13;66.78;95450.78;5134202;27;20033;-79
2022/01/27 00:38:42;;;;;;;20.60;10.43;;;;;;;-1.06;66.47;95457.38;5152425;27;20162;-79
2022/01/27 00:41:08;;;;;;;17.92;9.00;;;;;;;-1.05;66.78;95455.69;5116841;27;20496;-79
2022/01/27 00:43:33;;;;;;;18.50;8.77;;;;;;;-1.04;66.35;95457.34;5151031;27;20035;-79
2022/01/27 00:45:59;;;;;;;19.83;8.60;;;;;;;-1.04;66.84;95460.72;5151099;27;20022;-79
2022/01/27 00:48:24;;;;;;;13.82;7.35;;;;;;;-1.05;66.62;95458.22;5151227;27;20034;-79
2022/01/27 00:50:56;;;;;;;15.65;8.93;;;;;;;-1.04;66.55;95454.78;5133535;27;20100;-78
2022/01/27 00:53:34;;;;;;;17.15;8.52;;;;;;;-1.16;66.70;95441.50;5151254;27;20023;-79
2022/01/27 00:56:12;;;;;;;26.55;11.70;;;;;;;-1.05;66.62;95460.78;5135742;27;20030;-79
2022/01/27 00:59:05;;;;;;;16.15;7.80;;;;;;;-1.04;67.08;95458.16;5152855;27;20027;-79
2022/01/27 01:01:31;;;;;;;14.80;7.50;;;;;;;-1.04;66.80;95458.16;5154529;27;20121;-79
2022/01/27 01:04:01;;;;;;;14.35;7.97;;;;;;;-1.02;67.35;95448.78;5138052;27;20110;-79
2022/01/27 01:32:59;;;;;;;15.82;7.65;;;;;;;-1.07;67.54;95439.56;5134075;27;20031;-79
2022/01/27 01:35:29;;;;;;;15.02;7.80;;;;;;;-1.10;67.89;95437.94;5133751;27;20035;-78
2022/01/27 01:37:58;;;;;;;15.50;7.38;;;;;;;-1.07;67.22;95435.31;5117185;27;20035;-79
2022/01/27 01:40:23;;;;;;;14.73;7.25;;;;;;;-1.14;67.37;95439.75;5133461;27;20031;-79
2022/01/27 01:42:49;;;;;;;15.57;8.55;;;;;;;-1.12;66.76;95427.75;5099210;27;20054;-79
2022/01/27 01:45:19;;;;;;;15.70;7.13;;;;;;;-1.13;66.84;95420.19;5116307;27;20027;-78
2022/01/27 01:47:45;;;;;;;14.90;6.78;;;;;;;-1.13;67.11;95425.28;5116832;27;20023;-79
2022/01/27 01:50:11;;;;;;;12.90;6.25;;;;;;;-1.19;67.26;95420.34;5115912;27;20043;-78
2022/01/27 01:52:36;;;;;;;13.90;6.47;;;;;;;-1.13;67.48;95421.00;5116142;27;20027;-77
2022/01/27 01:55:02;;;;;;;14.93;6.57;;;;;;;-1.18;67.62;95411.81;5133212;27;20031;-79
2022/01/27 01:57:28;;;;;;;12.60;6.32;;;;;;;-1.27;67.84;95417.16;5116183;27;20672;-78
2022/01/27 01:59:53;;;;;;;25.90;8.23;;;;;;;-1.23;67.97;95424.69;5132988;27;20046;-79
2022/01/27 02:02:18;;;;;;;17.80;8.73;;;;;;;-1.27;68.03;95410.34;5135867;27;20031;-79
2022/01/27 02:04:44;;;;;;;18.77;8.57;;;;;;;-1.28;67.90;95420.56;5119220;27;20488;-79
2022/01/27 02:10:29;;;;;;;18.30;8.60;;;;;;;-1.24;66.88;95401.78;5152339;27;20043;-79
2022/01/27 02:18:26;;;;;;;18.42;8.77;;;;;;;-1.18;66.63;95386.31;5142840;27;20034;-78
2022/01/27 02:20:51;;;;;;;17.83;8.38;;;;;;;-1.21;66.52;95394.88;5153574;27;20031;-79
2022/01/27 02:23:17;;;;;;;14.63;7.75;;;;;;;-1.09;66.18;95401.34;5153449;27;20035;-79
2022/01/27 02:25:43;;;;;;;19.40;9.05;;;;;;;-1.06;66.56;95398.72;5136093;27;20031;-79
2022/01/27 02:28:08;;;;;;;20.30;9.23;;;;;;;-1.05;66.66;95405.50;5153427;27;20083;-78
2022/01/27 02:30:33;;;;;;;17.35;8.95;;;;;;;-1.09;66.37;95396.25;5154547;27;20034;-78
2022/01/27 02:32:59;;;;;;;15.38;8.25;;;;;;;-1.15;66.34;95386.22;5153107;27;20043;-78
2022/01/27 02:35:26;;;;;;;17.05;8.15;;;;;;;-1.12;66.39;95393.78;5135904;27;20043;-79
2022/01/27 02:37:52;;;;;;;18.38;8.20;;;;;;;-1.06;66.51;95393.59;5135976;27;20069;-78
2022/01/27 02:40:48;;;;;;;13.63;7.18;;;;;;;-1.01;66.04;95401.97;5135808;27;20460;-78
2022/01/27 02:43:14;;;;;;;16.33;6.95;;;;;;;-1.01;66.19;95401.13;5152202;27;20038;-79
2022/01/27 02:45:45;;;;;;;13.73;6.75;;;;;;;-0.98;66.00;95404.44;5152882;27;20118;-79
2022/01/27 02:48:12;;;;;;;16.60;7.50;;;;;;;-1.09;66.63;95401.34;5154168;27;20041;-79
2022/01/27 02:50:37;;;;;;;13.60;6.82;;;;;;;-1.05;66.46;95404.66;5135402;27;20125;-79
2022/01/27 02:53:03;;;;;;;14.70;7.88;;;;;;;-1.11;66.56;95403.13;5135479;27;20484;-79
2022/01/27 02:55:28;;;;;;;14.30;7.43;;;;;;;-1.07;66.44;95414.91;5135552;27;20468;-78
2022/01/27 02:57:56;;;;;;;11.15;6.95;;;;;;;-1.01;66.22;95408.78;5152729;27;20034;-78
2022/01/27 03:00:21;;;;;;;9.02;5.20;;;;;;;-1.05;66.23;95407.22;5135615;27;20080;-79
2022/01/27 03:02:47;;;;;;;9.00;4.53;;;;;;;-1.04;66.18;95412.25;5128314;27;20539;-79
2022/01/27 03:05:12;;;;;;;15.15;7.35;;;;;;;-0.99;66.46;95402.78;5131859;27;20041;-78
2022/01/27 03:07:38;;;;;;;9.73;5.18;;;;;;;-0.91;66.31;95410.22;5131963;27;20034;-78
2022/01/27 03:10:03;;;;;;;8.90;4.80;;;;;;;-0.90;66.41;95406.78;5114652;27;20039;-78
2022/01/27 03:12:30;;;;;;;10.90;5.18;;;;;;;-0.87;66.71;95418.59;5133140;27;20031;-79
2022/01/27 03:14:57;;;;;;;11.65;5.18;;;;;;;-0.93;66.91;95410.25;5114559;27;20030;-78
2022/01/27 03:17:23;;;;;;;12.32;5.45;;;;;;;-0.90;66.87;95411.88;5132938;27;20038;-78
2022/01/27 03:19:48;;;;;;;13.43;6.47;;;;;;;-0.87;67.12;95408.41;5114387;27;20023;-79
2022/01/27 03:22:14;;;;;;;10.55;6.32;;;;;;;-0.98;67.18;95394.22;5131319;27;20046;-79
2022/01/27 03:24:39;;;;;;;10.13;5.60;;;;;;;-0.82;66.67;95404.00;5097090;27;20023;-78
2022/01/27 03:27:16;;;;;;;12.25;6.90;;;;;;;-0.76;66.61;95398.72;5132742;27;20031;-78
2022/01/27 03:29:42;;;;;;;8.10;5.28;;;;;;;-0.85;66.96;95404.09;5131344;27;20065;-79
2022/01/27 03:32:07;;;;;;;10.75;6.20;;;;;;;-0.94;66.82;95395.81;5114293;27;20502;-78
2022/01/27 03:34:33;;;;;;;9.25;5.95;;;;;;;-0.84;66.78;95410.84;5113954;27;20087;-78
2022/01/27 03:36:58;;;;;;;8.40;5.57;;;;;;;-0.80;66.94;95412.47;5131235;27;20050;-79
2022/01/27 03:39:25;;;;;;;11.60;6.40;;;;;;;-0.80;66.88;95407.34;5131146;27;20015;-78
2022/01/27 03:41:53;;;;;;;53.60;21.63;;;;;;;-0.82;67.03;95409.09;5131121;27;20035;-79
2022/01/27 03:44:19;;;;;;;27.90;13.45;;;;;;;-0.80;66.66;95407.34;5130936;27;20027;-78
2022/01/27 03:46:45;;;;;;;23.17;11.63;;;;;;;-0.77;66.28;95407.25;5114112;27;20520;-78
2022/01/27 03:49:10;;;;;;;19.45;9.65;;;;;;;-0.77;66.47;95410.66;5130977;27;20019;-78
2022/01/27 03:51:36;;;;;;;17.67;9.27;;;;;;;-0.76;66.39;95414.84;5113871;27;20043;-79
2022/01/27 03:54:01;;;;;;;12.63;7.72;;;;;;;-0.72;66.26;95405.41;5130743;27;20038;-79
2022/01/27 03:56:27;;;;;;;12.70;8.43;;;;;;;-0.72;66.52;95410.53;5131009;27;20503;-78
2022/01/27 03:58:52;;;;;;;11.00;6.70;;;;;;;-0.67;66.24;95418.84;5130967;27;20027;-78
2022/01/27 04:01:18;;;;;;;10.73;6.30;;;;;;;-0.75;66.30;95402.97;5096881;28;20031;-78
2022/01/27 04:03:44;;;;;;;11.27;6.55;;;;;;;-0.73;66.70;95422.41;5146961;27;20035;-79
2022/01/27 04:06:10;;;;;;;13.88;7.65;;;;;;;-0.86;66.67;95399.84;5151380;27;20477;-79
2022/01/27 04:08:37;;;;;;;28.60;14.55;;;;;;;-0.77;66.73;95420.03;5151513;27;20071;-79
2022/01/27 04:11:08;;;;;;;29.45;17.77;;;;;;;-0.74;66.27;95417.38;5134227;27;20543;-79
2022/01/27 04:13:35;;;;;;;24.65;16.38;;;;;;;-0.69;66.09;95421.47;5152741;27;20031;-78
2022/01/27 04:16:00;;;;;;;25.33;17.02;;;;;;;-0.70;66.24;95418.94;5134237;27;20404;-78
2022/01/27 04:18:26;;;;;;;25.67;15.88;;;;;;;-0.77;66.39;95417.47;5117020;27;20027;-78
2022/01/27 04:20:51;;;;;;;26.50;15.77;;;;;;;-0.67;66.46;95418.84;5134181;27;20075;-79
2022/01/27 04:23:18;;;;;;;39.50;22.27;;;;;;;-0.70;66.24;95413.84;5152672;27;20102;-78
2022/01/27 04:25:45;;;;;;;29.25;16.63;;;;;;;-0.66;65.96;95415.44;5134240;27;20536;-79
2022/01/27 04:28:13;;;;;;;19.45;12.07;;;;;;;-0.76;66.24;95414.84;5134205;27;20030;-78
2022/01/27 04:30:39;;;;;;;16.20;10.38;;;;;;;-0.74;66.43;95423.31;5152464;27;20034;-78
2022/01/27 04:33:06;;;;;;;23.70;12.25;;;;;;;-0.68;66.27;95427.41;5133870;27;20050;-78
2022/01/27 04:35:35;;;;;;;19.05;12.23;;;;;;;-0.66;66.05;95428.19;5155260;27;20034;-79
2022/01/27 04:38:18;;;;;;;18.70;11.68;;;;;;;-0.65;66.16;95427.31;5155518;27;20070;-78
2022/01/27 04:45:54;;;;;;;10.23;6.95;;;;;;;-0.83;66.89;95422.75;5155316;27;20026;-79
2022/01/27 04:48:22;;;;;;;13.23;7.72;;;;;;;-0.76;66.94;95431.88;5125013;27;20030;-78
2022/01/27 04:50:48;;;;;;;11.05;6.78;;;;;;;-0.85;66.41;95419.41;5137856;27;20520;-79
2022/01/27 04:53:23;;;;;;;8.57;5.50;;;;;;;-0.78;66.61;95437.06;5137878;27;20034;-79
2022/01/27 04:55:49;;;;;;;16.13;10.15;;;;;;;-0.74;66.51;95432.69;5155301;27;20026;-79
2022/01/27 04:58:19;;;;;;;12.05;7.30;;;;;;;-0.75;66.78;95434.41;5155105;27;20029;-78
2022/01/27 05:00:45;;;;;;;14.60;10.23;;;;;;;-0.71;67.12;95442.81;5138407;27;20126;-79
2022/01/27 05:03:20;;;;;;;15.70;11.35;;;;;;;-0.79;67.03;95437.91;5127553;27;20023;-78
2022/01/27 05:05:45;;;;;;;10.25;7.15;;;;;;;-0.76;66.55;95445.47;5118836;27;20385;-79
2022/01/27 05:08:16;;;;;;;9.13;6.45;;;;;;;-0.73;66.58;95449.66;5099987;27;20045;-78
2022/01/27 05:10:43;;;;;;;12.38;9.15;;;;;;;-0.88;66.81;95460.31;5135488;27;20495;-78
2022/01/27 05:13:13;;;;;;;9.80;6.07;;;;;;;-0.85;66.94;95455.13;5134146;27;20031;-78
2022/01/27 05:15:44;;;;;;;11.55;8.18;;;;;;;-0.75;67.01;95461.66;5134087;27;20427;-78
2022/01/27 05:18:10;;;;;;;11.18;7.72;;;;;;;-0.78;66.99;95462.56;5133998;27;20577;-78
2022/01/27 05:20:36;;;;;;;8.70;5.70;;;;;;;-0.96;67.37;95458.78;5133917;27;20102;-78
2022/01/27 05:23:01;;;;;;;9.73;7.60;;;;;;;-0.94;67.22;95453.66;5135034;27;20378;-78
2022/01/27 05:25:26;;;;;;;11.75;7.80;;;;;;;-0.90;67.24;95456.06;5116228;27;20035;-79
2022/01/27 05:27:52;;;;;;;12.40;9.55;;;;;;;-0.92;67.42;95446.78;5133899;27;20035;-78
2022/01/27 05:30:18;;;;;;;11.90;8.15;;;;;;;-0.83;67.28;95458.47;5116522;27;20028;-78
2022/01/27 05:32:43;;;;;;;9.05;5.97;;;;;;;-0.81;67.26;95461.78;5116483;27;20031;-78
2022/01/27 05:35:08;;;;;;;8.60;5.82;;;;;;;-0.90;67.47;95458.63;5133618;27;20048;-78
2022/01/27 05:37:34;;;;;;;21.77;14.10;;;;;;;-0.94;67.17;95446.84;5116449;27;20555;-79
2022/01/27 05:39:59;;;;;;;30.38;17.55;;;;;;;-0.90;67.55;95476.47;5134761;27;20079;-79
2022/01/27 05:42:25;;;;;;;55.70;36.13;;;;;;;-0.88;67.35;95465.41;5133600;27;20031;-78
2022/01/27 05:44:50;;;;;;;30.35;18.27;;;;;;;-0.90;67.90;95470.53;5117896;27;20036;-79
2022/01/27 05:47:15;;;;;;;9.45;6.13;;;;;;;-0.87;67.62;95473.00;5130228;27;20036;-78
2022/01/27 05:49:41;;;;;;;18.88;10.68;;;;;;;-0.83;67.48;95478.88;5124695;27;20054;-78
2022/01/27 05:52:06;;;;;;;24.75;13.32;;;;;;;-0.88;67.76;95473.06;5117557;27;20018;-78
2022/01/27 05:54:34;;;;;;;14.60;8.88;;;;;;;-0.78;67.35;95479.56;5149193;27;20143;-78
2022/01/27 05:56:59;;;;;;;13.35;8.18;;;;;;;-0.87;68.33;95482.38;5133121;27;20484;-78
2022/01/27 05:59:25;;;;;;;15.38;9.15;;;;;;;-0.88;67.87;95478.16;5133043;27;20027;-78
2022/01/27 06:01:50;;;;;;;17.45;11.18;;;;;;;-0.82;67.89;95480.53;5133152;27;20024;-78
2022/01/27 06:04:16;;;;;;;15.43;8.80;;;;;;;-0.72;67.44;95494.72;5134108;27;20046;-77
2022/01/27 06:06:41;;;;;;;13.57;9.52;;;;;;;-0.79;68.00;95493.22;5120164;27;20428;-78
2022/01/27 06:09:06;;;;;;;13.30;9.18;;;;;;;-0.69;68.15;95490.38;5153671;27;20507;-78
2022/01/27 06:11:32;;;;;;;12.43;8.25;;;;;;;-0.71;67.85;95496.38;5154836;27;20108;-78
2022/01/27 06:13:57;;;;;;;11.10;7.97;;;;;;;-0.68;67.81;95498.84;5153611;27;20491;-78
2022/01/27 06:16:23;;;;;;;14.55;9.45;;;;;;;-0.68;67.71;95483.53;5150766;27;20022;-78
2022/01/27 06:18:48;;;;;;;19.90;10.95;;;;;;;-0.63;67.91;95491.91;5122286;27;20484;-78
2022/01/27 06:21:14;;;;;;;14.07;9.02;;;;;;;-0.57;67.91;95499.38;5135942;27;20027;-78
2022/01/27 06:23:39;;;;;;;16.58;10.13;;;;;;;-0.68;67.50;95478.44;5121440;27;20039;-78
2022/01/27 06:26:05;;;;;;;13.27;7.95;;;;;;;-0.63;68.37;95491.91;5132629;27;20031;-78
2022/01/27 06:28:30;;;;;;;11.52;7.75;;;;;;;-0.63;68.04;95508.94;5132757;27;20483;-78
2022/01/27 06:30:56;;;;;;;13.30;7.82;;;;;;;-0.63;67.99;95501.28;5120467;27;20035;-77
2022/01/27 06:33:22;;;;;;;8.52;6.15;;;;;;;-0.62;67.98;95506.34;5112191;27;20067;-78
2022/01/27 06:35:48;;;;;;;11.05;6.80;;;;;;;-0.68;67.88;95509.06;5133751;27;20084;-78
2022/01/27 06:38:13;;;;;;;16.15;10.02;;;;;;;-0.69;68.15;95504.84;5116420;27;20035;-80
2022/01/27 06:40:39;;;;;;;14.02;9.05;;;;;;;-0.61;68.04;95515.69;5116843;27;20027;-81
2022/01/27 06:43:05;;;;;;;13.85;8.77;;;;;;;-0.62;68.19;95520.81;5117826;27;20035;-81
2022/01/27 06:45:30;;;;;;;12.70;8.40;;;;;;;-0.58;68.34;95504.56;5115440;27;20076;-81
2022/01/27 06:47:56;;;;;;;11.45;7.85;;;;;;;-0.59;68.47;95506.25;5115506;27;20031;-81
2022/01/27 06:50:21;;;;;;;11.27;7.68;;;;;;;-0.62;68.16;95506.34;5131441;27;20099;-80
2022/01/27 06:52:47;;;;;;;9.85;7.75;;;;;;;-0.71;68.20;95515.09;5133241;27;20092;-81
2022/01/27 06:55:13;;;;;;;17.27;9.65;;;;;;;-0.63;68.41;95508.94;5133158;27;20043;-81
2022/01/27 06:57:39;;;;;;;15.80;10.52;;;;;;;-0.65;68.39;95498.75;5131511;27;20034;-81
2022/01/27 07:00:06;;;;;;;18.55;10.98;;;;;;;-0.58;68.04;95515.59;5107783;27;20038;-81
2022/01/27 07:02:31;;;;;;;16.50;9.60;;;;;;;-0.57;67.96;95509.59;5133071;27;20050;-81
2022/01/27 07:04:57;;;;;;;15.02;9.43;;;;;;;-0.60;67.87;95507.13;5131657;27;20405;-80
2022/01/27 07:07:22;;;;;;;16.63;9.25;;;;;;;-0.58;68.40;95509.66;5131851;27;20034;-79
2022/01/27 07:09:48;;;;;;;15.70;9.82;;;;;;;-0.57;68.49;95507.03;5114575;27;20037;-81
2022/01/27 07:12:13;;;;;;;17.77;11.68;;;;;;;-0.52;68.15;95509.47;5114623;27;20035;-81
2022/01/27 07:14:39;;;;;;;17.00;11.02;;;;;;;-0.53;68.00;95511.19;5131552;27;20036;-80
2022/01/27 07:17:04;;;;;;;19.00;11.68;;;;;;;-0.51;68.42;95511.97;5114573;27;20054;-81
2022/01/27 07:19:30;;;;;;;17.98;12.20;;;;;;;-0.52;68.23;95505.19;5131684;27;20019;-80
2022/01/27 07:21:55;;;;;;;14.85;10.65;;;;;;;-0.39;67.93;95523.56;5131661;27;20027;-81
2022/01/27 07:24:21;;;;;;;21.20;12.52;;;;;;;-0.46;68.24;95520.34;5131658;27;20026;-81
2022/01/27 07:26:46;;;;;;;20.73;12.38;;;;;;;-0.40;68.18;95515.94;5114546;27;20030;-81
2022/01/27 07:29:12;;;;;;;17.42;11.48;;;;;;;-0.31;67.77;95520.78;5131511;27;20480;-80
2022/01/27 07:31:37;;;;;;;16.45;9.90;;;;;;;-0.32;68.12;95530.16;5131752;27;20031;-78
2022/01/27 07:34:02;;;;;;;15.13;10.55;;;;;;;-0.33;67.77;95520.00;5131790;27;20023;-81
2022/01/27 07:36:31;;;;;;;14.35;9.27;;;;;;;-0.30;67.39;95525.00;5132096;27;20465;-81
2022/01/27 07:38:56;;;;;;;14.45;9.27;;;;;;;-0.34;67.56;95524.25;5115024;27;20489;-81
2022/01/27 07:41:22;;;;;;;17.45;10.55;;;;;;;-0.25;67.88;95525.72;5114574;27;20031;-80
2022/01/27 07:43:47;;;;;;;17.95;9.75;;;;;;;-0.25;67.14;95518.06;5133068;27;20043;-81
2022/01/27 07:46:13;;;;;;;14.27;8.85;;;;;;;-0.20;67.25;95530.66;5131877;27;20027;-80
2022/01/27 07:48:41;;;;;;;13.23;8.63;;;;;;;-0.21;67.47;95519.63;5132387;27;20031;-80
2022/01/27 07:51:08;;;;;;;15.38;9.63;;;;;;;-0.19;66.78;95522.97;5114058;27;20086;-81
2022/01/27 07:53:34;;;;;;;14.25;9.68;;;;;;;-0.16;66.99;95517.78;5114084;27;20033;-81
2022/01/27 07:56:02;;;;;;;16.15;9.50;;;;;;;-0.28;67.30;95497.69;5113915;27;20029;-80
2022/01/27 07:58:28;;;;;;;13.02;9.52;;;;;;;-0.14;67.09;95528.78;5131036;27;20048;-80
2022/01/27 08:00:53;;;;;;;17.27;11.10;;;;;;;-0.12;67.05;95528.72;5130608;27;20565;-81
2022/01/27 08:03:19;;;;;;;19.17;12.98;;;;;;;-0.15;67.05;95539.88;5113812;27;20031;-81
2022/01/27 08:05:44;;;;;;;19.50;14.15;;;;;;;-0.13;67.35;95533.00;5130726;27;20031;-81
2022/01/27 08:08:09;;;;;;;20.90;14.25;;;;;;;-0.09;67.00;95537.13;5112946;28;20034;-81
2022/01/27 08:10:38;;;;;;;21.83;14.90;;;;;;;-0.12;66.92;95532.13;5130700;27;20068;-79
2022/01/27 08:13:04;;;;;;;18.85;11.60;;;;;;;-0.14;66.80;95533.91;5114449;28;20060;-81
2022/01/27 08:15:31;;;;;;;20.20;13.50;;;;;;;-0.14;67.37;95533.91;5113696;28;20027;-80
2022/01/27 08:17:56;;;;;;;16.13;10.57;;;;;;;-0.23;67.01;95531.59;5130732;28;20035;-80
2022/01/27 08:20:21;;;;;;;20.45;11.90;;;;;;;-0.16;67.47;95545.03;5130654;28;20054;-81
2022/01/27 08:22:49;;;;;;;25.83;13.20;;;;;;;-0.23;67.87;95532.44;5113536;28;20458;-81
2022/01/27 08:25:15;;;;;;;31.77;17.25;;;;;;;-0.29;67.83;95542.00;5130731;28;20031;-81
2022/01/27 08:27:44;;;;;;;43.65;22.08;;;;;;;-0.15;67.90;95539.88;5113370;28;20039;-79
2022/01/27 08:30:11;;;;;;;31.40;17.05;;;;;;;-0.16;67.93;95547.59;5131787;27;20024;-80
2022/01/27 08:35:34;;;;;;;18.30;11.88;;;;;;;-0.26;68.13;95541.91;5095359;28;20058;-80
2022/01/27 08:37:59;;;;;;;19.67;10.95;;;;;;;-0.13;67.92;95542.41;5131896;27;20019;-81
2022/01/27 08:40:25;;;;;;;30.15;17.20;;;;;;;-0.11;67.49;95548.28;5131964;27;20031;-80
2022/01/27 08:42:50;;;;;;;28.90;19.33;;;;;;;-0.20;67.81;95559.59;5130676;28;20035;-79
2022/01/27 08:45:18;;;;;;;22.98;14.95;;;;;;;-0.18;67.88;95550.19;5113535;28;20118;-80
2022/01/27 08:47:44;;;;;;;16.98;10.73;;;;;;;-0.08;67.89;95554.16;5113502;28;20078;-80
2022/01/27 08:50:11;;;;;;;19.05;13.85;;;;;;;-0.27;67.64;95546.19;5130308;28;20070;-81
2022/01/27 08:52:36;;;;;;;152.60;45.10;;;;;;;-0.05;67.72;95551.50;5113524;28;20028;-82
2022/01/27 08:55:03;;;;;;;20.75;14.35;;;;;;;-0.08;67.88;95559.25;5113201;28;20050;-76
2022/01/27 08:57:28;;;;;;;29.08;15.90;;;;;;;-0.16;67.83;95542.50;5130385;28;20035;-78
2022/01/27 08:59:53;;;;;;;13.95;9.05;;;;;;;-0.08;67.42;95555.88;5131429;27;20027;-75
2022/01/27 09:02:20;;;;;;;13.20;8.65;;;;;;;-0.08;67.43;95556.72;5130232;28;20035;-75
2022/01/27 09:04:46;;;;;;;16.38;10.85;;;;;;;-0.04;67.21;95563.38;5112939;28;20023;-73
2022/01/27 09:07:11;;;;;;;14.50;9.52;;;;;;;-0.09;67.22;95559.28;5131421;27;20042;-72
2022/01/27 09:09:37;;;;;;;16.92;12.07;;;;;;;-0.16;67.78;95561.19;5130027;28;20027;-74
2022/01/27 09:12:02;;;;;;;14.48;10.43;;;;;;;-0.20;67.55;95564.72;5131364;27;20047;-75
2022/01/27 09:14:30;;;;;;;17.15;12.30;;;;;;;-0.11;67.65;95563.59;5129977;28;20095;-75
2022/01/27 09:16:58;;;;;;;17.13;11.73;;;;;;;-0.12;67.45;95555.09;5130013;28;20027;-74
2022/01/27 09:19:28;;;;;;;20.65;12.90;;;;;;;-0.07;67.75;95555.81;5113105;27;20078;-75
2022/01/27 09:21:54;;;;;;;17.48;11.35;;;;;;;0.03;66.95;95563.19;5117189;27;20031;-75
2022/01/27 09:24:26;;;;;;;17.35;10.85;;;;;;;0.04;67.37;95554.66;5133648;27;20019;-75
2022/01/27 09:26:58;;;;;;;14.95;10.57;;;;;;;-0.10;67.21;95557.63;5117632;27;20043;-74
2022/01/27 09:29:23;;;;;;;16.60;10.27;;;;;;;-0.08;67.30;95551.59;5133546;27;20019;-76
2022/01/27 09:31:49;;;;;;;18.17;12.95;;;;;;;-0.03;67.50;95549.75;5133507;27;20043;-75
2022/01/27 09:34:14;;;;;;;43.58;23.73;;;;;;;0.08;67.44;95557.06;5133543;27;20050;-75
2022/01/27 09:36:40;;;;;;;28.63;18.60;;;;;;;0.05;67.30;95549.50;5133523;27;20023;-75
2022/01/27 09:39:05;;;;;;;27.98;16.25;;;;;;;0.03;67.98;95547.88;5134629;27;20030;-75
2022/01/27 09:41:31;;;;;;;82.68;34.38;;;;;;;0.14;67.45;95544.13;5116181;27;20023;-75
2022/01/27 09:43:57;;;;;;;123.80;49.20;;;;;;;0.19;67.70;95544.78;5116220;27;20036;-75
2022/01/27 09:46:24;;;;;;;89.57;37.78;;;;;;;0.26;66.73;95545.47;5135034;27;20027;-75
2022/01/27 09:48:51;;;;;;;29.73;16.58;;;;;;;0.24;66.70;95531.06;5134479;27;20054;-76
2022/01/27 09:53:48;;;;;;;29.48;18.30;;;;;;;0.34;66.59;95527.34;5133493;27;20036;-75
2022/01/27 09:56:13;;;;;;;33.03;19.42;;;;;;;0.30;66.16;95525.75;5133030;27;20061;-75
2022/01/27 09:58:39;;;;;;;16.80;11.57;;;;;;;0.31;66.20;95532.56;5116255;27;20028;-75
2022/01/27 10:01:04;;;;;;;17.85;12.70;;;;;;;0.31;65.91;95518.03;5133169;27;20042;-74
2022/01/27 10:03:30;;;;;;;24.17;17.73;;;;;;;0.24;66.18;95513.16;5115928;27;20027;-74
2022/01/27 10:06:13;;;;;;;89.85;45.08;;;;;;;0.35;66.23;95529.84;5134426;27;20109;-75
2022/01/27 10:08:41;;;;;;;24.45;16.92;;;;;;;0.43;65.08;95530.44;5132972;27;20442;-75
2022/01/27 10:11:17;;;;;;;32.40;21.48;;;;;;;0.56;64.97;95517.28;5132916;27;20549;-75
2022/01/27 10:13:45;;;;;;;44.35;30.15;;;;;;;0.54;64.73;95511.38;5132808;27;20116;-75
2022/01/27 10:16:30;;;;;;;30.33;21.48;;;;;;;0.61;64.53;95516.22;5116076;27;20476;-75
2022/01/27 10:19:08;;;;;;;28.88;19.05;;;;;;;0.66;64.16;95519.44;5115599;27;20111;-74
2022/01/27 10:21:34;;;;;;;22.70;14.88;;;;;;;0.52;64.34;95515.69;5134397;27;20031;-75
2022/01/27 10:24:26;;;;;;;16.98;11.23;;;;;;;0.62;64.18;95517.06;5132570;27;20051;-74
2022/01/27 10:27:16;;;;;;;;;;;;;;;0.69;64.67;95515.13;5109161;27;20096;-73
2022/01/27 10:30:00;;;;;;;30.48;19.65;;;;;;;0.58;64.74;95510.38;5133514;27;19915;-73
2022/01/27 10:32:45;;;;;;;23.77;15.90;;;;;;;0.70;64.33;95509.97;5132831;27;20512;-73
2022/01/27 10:35:12;;;;;;;35.20;21.00;;;;;;;0.63;64.55;95505.94;5133750;27;20033;-73
2022/01/27 10:37:57;;;;;;;25.40;17.60;;;;;;;0.60;64.04;95521.38;5132318;27;20027;-73
2022/01/27 10:40:45;;;;;;;18.60;13.60;;;;;;;0.61;64.10;95515.38;5132404;27;20172;-72
2022/01/27 10:43:15;;;;;;;14.15;9.40;;;;;;;0.59;61.82;95509.50;5132169;27;20106;-73
2022/01/27 10:46:10;;;;;;;14.55;10.10;;;;;;;0.66;62.21;95508.38;5132224;27;20057;-73
2022/01/27 10:48:52;;;;;;;16.58;11.10;;;;;;;0.72;61.32;95503.06;5132115;27;20038;-73
2022/01/27 10:51:32;;;;;;;15.40;9.75;;;;;;;0.70;61.34;95506.56;5116007;27;20055;-73
2022/01/27 10:54:01;;;;;;;23.20;14.88;;;;;;;0.71;61.42;95490.34;5116987;27;20114;-75
2022/01/27 10:56:28;;;;;;;18.50;11.35;;;;;;;0.80;60.63;95498.53;5132232;27;20412;-74
2022/01/27 10:58:54;;;;;;;16.45;10.70;;;;;;;0.77;61.05;95498.63;5131832;27;20031;-75
2022/01/27 11:01:21;;;;;;;30.60;19.00;;;;;;;0.81;61.09;95492.53;5132022;27;20031;-75
2022/01/27 11:03:51;;;;;;;25.17;17.67;;;;;;;0.84;61.06;95484.75;5131754;27;20023;-74
2022/01/27 11:06:16;;;;;;;21.08;14.77;;;;;;;0.86;61.38;95484.69;5131946;27;20027;-73
2022/01/27 11:08:42;;;;;;;17.42;11.77;;;;;;;0.91;60.92;95484.53;5131649;27;20115;-73
2022/01/27 11:11:08;;;;;;;16.90;10.32;;;;;;;0.91;60.23;95482.00;5131660;27;20031;-73
2022/01/27 11:13:35;;;;;;;13.18;9.00;;;;;;;0.91;59.95;95476.88;5114445;27;20449;-73
2022/01/27 11:16:03;;;;;;;25.92;14.32;;;;;;;0.95;59.92;95481.84;5114720;27;20100;-73
2022/01/27 11:18:29;;;;;;;33.92;18.73;;;;;;;0.99;59.70;95475.72;5131556;27;20031;-73
2022/01/27 11:20:59;;;;;;;36.33;19.02;;;;;;;1.06;59.80;95482.31;5114587;27;20118;-73
2022/01/27 11:26:09;;;;;;;143.45;53.35;;;;;;;1.18;58.76;95470.78;5115968;27;20028;-73
2022/01/27 11:28:35;;;;;;;44.85;21.50;;;;;;;1.04;58.39;95468.72;5132904;27;20043;-73
2022/01/27 11:31:07;;;;;;;30.05;15.25;;;;;;;1.10;58.23;95463.38;5114151;27;20053;-73
2022/01/27 11:33:34;;;;;;;141.73;53.83;;;;;;;1.04;58.65;95455.09;5131266;27;20031;-74
2022/01/27 11:36:14;;;;;;;22.98;13.90;;;;;;;1.08;58.29;95449.78;5097352;27;20417;-73
2022/01/27 11:38:42;;;;;;;71.40;32.75;;;;;;;1.15;58.77;95460.66;5114659;27;20556;-73
2022/01/27 11:41:22;;;;;;;35.17;14.85;;;;;;;1.19;57.54;95441.72;5131213;27;20031;-73
2022/01/27 11:43:48;;;;;;;22.73;13.73;;;;;;;1.34;57.78;95455.72;5128129;27;20028;-73
2022/01/27 11:46:15;;;;;;;23.05;12.65;;;;;;;1.41;57.60;95451.19;5132072;27;20027;-74
2022/01/27 11:48:40;;;;;;;17.60;10.15;;;;;;;1.42;57.15;95443.47;5113943;27;20028;-74
2022/01/27 11:51:08;;;;;;;18.58;10.50;;;;;;;1.44;56.68;95448.53;5113811;27;20116;-74
2022/01/27 11:53:35;;;;;;;19.95;11.65;;;;;;;1.46;56.91;95449.31;5130792;27;20483;-74
2022/01/27 11:56:03;;;;;;;20.50;11.65;;;;;;;1.42;56.66;95442.63;5132393;27;20023;-74
2022/01/27 11:58:29;;;;;;;28.45;13.68;;;;;;;1.57;56.90;95439.50;5130914;27;20045;-74
2022/01/27 12:01:11;;;;;;;17.15;10.68;;;;;;;1.49;56.76;95438.94;5113845;27;20035;-74
2022/01/27 12:03:38;;;;;;;28.52;16.27;;;;;;;1.51;56.75;95438.00;5130832;27;20038;-73
2022/01/27 12:06:12;;;;;;;72.70;33.95;;;;;;;1.63;57.27;95436.69;5113860;27;20080;-74
2022/01/27 12:08:38;;;;;;;25.63;16.45;;;;;;;1.64;56.82;95442.66;5130728;27;20067;-74
2022/01/27 12:11:07;;;;;;;17.23;11.43;;;;;;;1.62;57.23;95429.91;5113373;28;20031;-73
2022/01/27 12:19:07;;;;;;;12.25;7.85;;;;;;;1.70;55.28;95432.16;5130901;27;20045;-74
2022/01/27 12:21:41;;;;;;;23.95;16.13;;;;;;;1.85;55.47;95425.63;5130948;27;20035;-74
2022/01/27 12:26:53;;;;;;;34.92;29.00;;;;;;;1.84;55.22;95418.81;5131651;28;20042;-74
2022/01/27 12:29:33;;;;;;;28.33;21.65;;;;;;;1.88;55.30;95412.72;5130384;28;20046;-74